CheckWX is a tool to help pilots better visualize weather data.  It is not intended as a substitute for an official pre-flight weather briefing.

20:34:03 UTC

EGTE METAR
Exeter International Airport
Exeter, United Kingdom
Current

14 mins ago

EGTE 182020Z 21007KT CAVOK 06/03 Q1017
Observed
Feb-18 @ 20:20 UTC
Wind
  • 210° at 7 KTS
Visibility
10,000+ meters
Flight Rules
VFR
Cloud Levels
  • Clear skies
Temperature
C / 43°F
Dewpoint
C / 37°F
Humidity
81%
Altimeter
30.03" Hg
Pressure
1016.92 hPa
Previous

44 mins ago

EGTE 181950Z 20006KT CAVOK 07/03 Q1017
Observed
Feb-18 @ 19:50 UTC
Wind
  • 200° at 6 KTS
Visibility
10,000+ meters
Flight Rules
VFR
Cloud Levels
  • Clear skies
Temperature
C / 45°F
Dewpoint
C / 37°F
Humidity
76%
Altimeter
30.03" Hg
Pressure
1016.92 hPa
Previous

1 hour ago

EGTE 181920Z 21007KT CAVOK 08/04 Q1016
Observed
Feb-18 @ 19:20 UTC
Wind
  • 210° at 7 KTS
Visibility
10,000+ meters
Flight Rules
VFR
Cloud Levels
  • Clear skies
Temperature
C / 46°F
Dewpoint
C / 39°F
Humidity
76%
Altimeter
30" Hg
Pressure
1015.92 hPa